Time;durP1;ratioP1;P1;durP2;ratioP2;P2;SDS_P1;SDS_P2;PMS_P1;PMS_P2;Temp;Humidity;BMP_temperature;BMP_pressure;BME280_temperature;BME280_humidity;BME280_pressure;Samples;Min_cycle;Max_cycle;Signal;HPM_P1;HPM_P2
2023/07/20 00:00:45;;;;;;;0.40;0.40;;;;;;;23.88;51.61;100336.00;4515822;28;20048;-58
2023/07/20 00:03:16;;;;;;;0.25;0.25;;;;;;;23.88;51.20;100338.88;4516515;28;20128;-58
2023/07/20 00:05:26;;;;;;;0.43;0.43;;;;;;;23.87;51.58;100336.38;4515911;28;20033;-58
2023/07/20 00:07:37;;;;;;;0.40;0.40;;;;;;;23.87;51.22;100333.50;4516815;28;20021;-58
2023/07/20 00:09:47;;;;;;;0.35;0.30;;;;;;;23.81;50.88;100315.75;4517456;28;20520;-58
2023/07/20 00:12:00;;;;;;;0.40;0.40;;;;;;;23.87;50.89;100328.59;4517276;28;20124;-58
2023/07/20 00:14:10;;;;;;;0.47;0.47;;;;;;;23.86;51.08;100326.09;4532442;28;20055;-58
2023/07/20 00:16:20;;;;;;;0.50;0.40;;;;;;;23.85;51.16;100328.16;4518026;28;20028;-58
2023/07/20 00:18:31;;;;;;;0.57;0.40;;;;;;;23.86;51.00;100338.47;4515848;28;20048;-57
2023/07/20 00:20:41;;;;;;;0.38;0.38;;;;;;;23.87;50.78;100334.34;4516023;28;20040;-59
2023/07/20 00:22:52;;;;;;;0.40;0.40;;;;;;;23.87;51.26;100340.13;4515669;28;20044;-58
2023/07/20 00:25:03;;;;;;;0.40;0.40;;;;;;;23.85;51.04;100333.09;4516769;28;20041;-58
2023/07/20 00:27:13;;;;;;;0.47;0.47;;;;;;;23.87;50.94;100334.34;4516731;28;20037;-59
2023/07/20 00:29:23;;;;;;;0.50;0.50;;;;;;;23.85;50.79;100336.78;4515939;28;20405;-59
2023/07/20 00:31:36;;;;;;;0.50;0.50;;;;;;;23.81;50.92;100333.06;4514825;28;20064;-59
2023/07/20 00:33:47;;;;;;;0.68;0.60;;;;;;;23.83;51.28;100330.63;4496399;28;20057;-59
2023/07/20 00:35:57;;;;;;;0.85;0.50;;;;;;;23.83;51.05;100327.72;4515493;28;20052;-59
2023/07/20 00:38:08;;;;;;;0.60;0.50;;;;;;;23.83;51.09;100327.72;4516388;28;20021;-59
2023/07/20 00:40:18;;;;;;;0.40;0.40;;;;;;;23.85;51.74;100331.03;4515605;28;20037;-59
2023/07/20 00:42:29;;;;;;;0.80;0.65;;;;;;;23.86;51.72;100331.88;4517309;28;20038;-58
2023/07/20 00:44:39;;;;;;;0.60;0.60;;;;;;;23.83;51.34;100327.72;4515270;28;20771;-58
2023/07/20 00:46:51;;;;;;;0.50;0.50;;;;;;;23.81;52.06;100312.88;4512332;28;20493;-58
2023/07/20 00:49:01;;;;;;;0.75;0.50;;;;;;;23.80;51.42;100310.41;4516493;28;20039;-58
2023/07/20 00:51:12;;;;;;;0.50;0.50;;;;;;;23.81;51.69;100312.88;4515729;28;20557;-58
2023/07/20 00:53:23;;;;;;;0.35;0.35;;;;;;;23.85;51.72;100312.94;4516651;28;20033;-58
2023/07/20 00:55:34;;;;;;;0.50;0.50;;;;;;;23.85;51.98;100322.38;4516271;28;20594;-58
2023/07/20 00:57:44;;;;;;;0.60;0.60;;;;;;;23.84;51.67;100322.78;4515143;28;20034;-58
2023/07/20 00:59:55;;;;;;;0.55;0.50;;;;;;;23.85;52.06;100318.69;4513746;28;20080;-58
2023/07/20 01:02:05;;;;;;;0.88;0.68;;;;;;;23.83;52.14;100319.09;4514757;28;20557;-58
2023/07/20 01:04:16;;;;;;;0.60;0.43;;;;;;;23.86;52.53;100318.28;4514914;28;20037;-57
2023/07/20 01:06:50;;;;;;;1.15;0.70;;;;;;;23.86;51.88;100323.22;4515913;28;20041;-58
2023/07/20 01:09:16;;;;;;;0.50;0.50;;;;;;;23.85;51.67;100325.25;4515906;28;20804;-60
2023/07/20 01:11:46;;;;;;;0.77;0.68;;;;;;;23.85;51.81;100322.38;4515205;28;20064;-58
2023/07/20 01:13:57;;;;;;;0.60;0.50;;;;;;;23.83;51.64;100321.13;4503793;28;20042;-58
2023/07/20 01:16:08;;;;;;;0.93;0.63;;;;;;;23.82;51.64;100331.81;4515535;28;20051;-58
2023/07/20 01:18:18;;;;;;;0.88;0.60;;;;;;;23.83;51.60;100330.63;4515407;28;20035;-58
2023/07/20 01:20:31;;;;;;;0.85;0.50;;;;;;;23.82;51.38;100320.28;4515765;28;20041;-58
2023/07/20 01:23:22;;;;;;;0.65;0.50;;;;;;;23.84;51.85;100334.31;4514061;28;20034;-58
2023/07/20 01:26:10;;;;;;;0.65;0.60;;;;;;;23.83;51.58;100327.72;4496224;28;20606;-58
2023/07/20 01:28:42;;;;;;;0.60;0.60;;;;;;;23.83;51.13;100321.97;4512887;28;20068;-58
2023/07/20 01:31:17;;;;;;;0.60;0.60;;;;;;;23.71;51.27;100304.94;4513471;28;21024;-58
2023/07/20 01:33:31;;;;;;;0.60;0.60;;;;;;;23.80;51.40;100313.28;4514039;28;20037;-57
2023/07/20 01:35:44;;;;;;;0.50;0.50;;;;;;;23.81;51.48;100312.88;4514067;28;20033;-59
2023/07/20 01:37:56;;;;;;;0.70;0.60;;;;;;;23.83;51.71;100315.38;4513522;28;20033;-58
2023/07/20 01:40:09;;;;;;;0.40;0.40;;;;;;;23.81;51.63;100312.88;4515289;28;20036;-58
2023/07/20 01:42:19;;;;;;;0.68;0.63;;;;;;;23.81;51.53;100314.94;4529075;28;21351;-58
2023/07/20 01:44:30;;;;;;;0.70;0.50;;;;;;;23.79;51.55;100309.56;4514340;28;20062;-58
2023/07/20 01:46:40;;;;;;;0.55;0.50;;;;;;;23.81;51.54;100312.88;4514197;28;20205;-58
2023/07/20 01:48:51;;;;;;;0.60;0.60;;;;;;;23.80;51.65;100316.97;4514046;28;20041;-58
2023/07/20 01:51:02;;;;;;;0.75;0.63;;;;;;;23.77;51.49;100302.53;4519181;28;20769;-58
2023/07/20 01:53:12;;;;;;;0.65;0.63;;;;;;;23.82;51.60;100317.41;4514966;28;20037;-57
2023/07/20 01:55:23;;;;;;;0.90;0.60;;;;;;;23.78;51.24;100315.72;4513772;28;20040;-58
2023/07/20 01:57:34;;;;;;;0.60;0.60;;;;;;;23.79;51.40;100315.31;4515237;28;20480;-58
2023/07/20 01:59:44;;;;;;;0.70;0.70;;;;;;;23.80;51.62;100313.28;4516161;28;20025;-58
2023/07/20 02:01:54;;;;;;;0.68;0.68;;;;;;;23.80;51.62;100314.09;4514388;28;20041;-58
2023/07/20 02:04:05;;;;;;;0.68;0.60;;;;;;;23.67;51.32;100295.44;4515372;28;20120;-58
2023/07/20 02:06:15;;;;;;;0.60;0.60;;;;;;;23.79;51.48;100308.72;4514148;28;20042;-58
2023/07/20 02:08:26;;;;;;;1.25;0.80;;;;;;;23.79;51.43;100309.56;4514972;28;20029;-59
2023/07/20 02:10:36;;;;;;;0.63;0.63;;;;;;;23.81;51.69;100301.34;4513986;28;20046;-58
2023/07/20 02:12:47;;;;;;;0.88;0.80;;;;;;;23.80;51.42;100301.75;4515309;28;20038;-58
2023/07/20 02:14:58;;;;;;;0.70;0.70;;;;;;;23.78;51.81;100307.91;4515103;28;20076;-58
2023/07/20 02:17:10;;;;;;;0.70;0.70;;;;;;;23.78;51.74;100305.03;4513882;28;20021;-58
2023/07/20 02:19:21;;;;;;;0.90;0.75;;;;;;;23.81;51.55;100303.41;4514086;28;21335;-59
2023/07/20 02:21:31;;;;;;;0.90;0.70;;;;;;;23.79;51.39;100297.19;4512596;28;20112;-59
2023/07/20 02:23:42;;;;;;;1.23;0.70;;;;;;;23.79;52.10;100300.91;4514192;28;20565;-59
2023/07/20 02:25:52;;;;;;;0.85;0.80;;;;;;;23.79;51.43;100303.78;4515381;28;20544;-58
2023/07/20 02:28:04;;;;;;;0.90;0.80;;;;;;;23.81;51.73;100312.03;4514141;28;20083;-58
2023/07/20 02:30:16;;;;;;;1.05;0.70;;;;;;;23.80;51.75;100302.56;4514587;28;20121;-58
2023/07/20 02:32:26;;;;;;;0.80;0.80;;;;;;;23.79;51.85;100303.78;4514920;28;20045;-58
2023/07/20 02:34:37;;;;;;;1.60;0.90;;;;;;;23.77;51.62;100299.66;4515536;28;20366;-58
2023/07/20 02:36:48;;;;;;;0.70;0.70;;;;;;;23.78;51.69;100293.50;4513764;28;20042;-58
2023/07/20 02:38:58;;;;;;;0.90;0.90;;;;;;;23.75;51.47;100290.56;4502982;28;20637;-58
2023/07/20 02:41:09;;;;;;;1.00;0.90;;;;;;;23.79;51.88;100303.78;4515377;28;20042;-58
2023/07/20 02:43:19;;;;;;;1.48;1.00;;;;;;;23.79;51.47;100300.06;4518039;28;20076;-58
2023/07/20 02:45:30;;;;;;;1.10;1.00;;;;;;;23.73;51.79;100293.84;4517051;28;20747;-58
2023/07/20 02:47:40;;;;;;;2.15;1.00;;;;;;;23.76;51.88;100303.75;4517882;28;20037;-58
2023/07/20 02:49:51;;;;;;;1.23;0.80;;;;;;;23.74;51.64;100294.69;4515188;28;20091;-59
2023/07/20 02:52:01;;;;;;;0.90;0.90;;;;;;;23.77;51.86;100294.72;4516510;28;20116;-58
2023/07/20 02:54:12;;;;;;;1.00;0.90;;;;;;;23.73;52.15;100288.09;4515120;28;20045;-58
2023/07/20 02:56:22;;;;;;;1.00;0.90;;;;;;;23.76;51.63;100295.09;4513068;28;20068;-58
2023/07/20 02:58:37;;;;;;;2.00;1.10;;;;;;;23.78;51.35;100302.16;4517300;28;20033;-58
2023/07/20 03:00:47;;;;;;;1.35;1.23;;;;;;;23.77;51.66;100300.47;4517283;28;20044;-58
2023/07/20 03:02:58;;;;;;;1.10;1.00;;;;;;;23.78;52.11;100299.25;4516214;28;20072;-57
2023/07/20 03:05:08;;;;;;;1.00;0.90;;;;;;;23.78;52.56;100295.53;4533545;28;20120;-58
2023/07/20 03:07:19;;;;;;;1.38;0.90;;;;;;;23.77;52.24;100293.91;4504714;28;20045;-58
2023/07/20 03:09:29;;;;;;;1.15;0.80;;;;;;;23.75;52.04;100296.34;4516490;28;20466;-58
2023/07/20 03:11:40;;;;;;;1.00;0.90;;;;;;;23.78;52.46;100295.53;4516156;28;20478;-58
2023/07/20 03:13:50;;;;;;;1.63;1.10;;;;;;;23.76;51.81;100304.59;4516511;28;20472;-59
2023/07/20 03:16:01;;;;;;;2.30;1.17;;;;;;;23.72;51.91;100294.25;4516318;28;20043;-58
2023/07/20 03:18:12;;;;;;;1.48;1.20;;;;;;;23.74;51.65;100304.16;4514045;28;20611;-57
2023/07/20 03:20:23;;;;;;;1.25;1.15;;;;;;;23.76;51.95;100297.97;4516003;28;20350;-59
2023/07/20 03:22:33;;;;;;;1.42;1.20;;;;;;;23.64;51.82;100284.72;4515610;28;20033;-58
2023/07/20 03:24:44;;;;;;;1.38;1.20;;;;;;;23.76;51.76;100295.94;4515759;28;20033;-59
2023/07/20 03:26:54;;;;;;;1.08;0.93;;;;;;;23.74;52.40;100301.25;4515140;28;20060;-58
2023/07/20 03:29:05;;;;;;;1.20;1.00;;;;;;;23.75;52.52;100299.22;4514564;28;20260;-58
2023/07/20 03:31:17;;;;;;;1.30;1.20;;;;;;;23.71;51.82;100301.22;4504906;28;20033;-58
2023/07/20 03:33:31;;;;;;;1.13;1.02;;;;;;;23.77;52.28;100305.44;4514761;28;20585;-58
2023/07/20 03:35:43;;;;;;;1.60;1.00;;;;;;;23.71;51.92;100298.34;4514965;28;20123;-58
2023/07/20 03:37:54;;;;;;;1.10;1.00;;;;;;;23.74;52.50;100301.25;4515308;28;20072;-58
2023/07/20 03:40:07;;;;;;;1.23;1.00;;;;;;;23.61;52.30;100285.47;4515112;28;20140;-58
2023/07/20 03:42:17;;;;;;;1.63;0.90;;;;;;;23.75;52.49;100308.72;4516353;28;20045;-58
2023/07/20 03:44:29;;;;;;;1.10;1.00;;;;;;;23.73;51.98;100305.38;4515353;28;20350;-58
2023/07/20 03:46:39;;;;;;;2.55;1.20;;;;;;;23.74;51.57;100307.03;4498787;28;20045;-58
2023/07/20 03:48:50;;;;;;;1.30;1.20;;;;;;;23.74;52.03;100311.97;4515076;28;20069;-58
2023/07/20 03:51:00;;;;;;;1.27;1.17;;;;;;;23.71;52.03;100301.22;4515024;28;20073;-58
2023/07/20 03:53:12;;;;;;;1.45;1.27;;;;;;;23.74;51.90;100306.22;4497474;28;20026;-58
2023/07/20 03:55:22;;;;;;;2.47;1.23;;;;;;;23.74;52.18;100309.91;4516600;28;20559;-59
2023/07/20 03:57:33;;;;;;;1.20;1.10;;;;;;;23.72;52.10;100314.44;4520567;28;20033;-58
2023/07/20 03:59:48;;;;;;;1.58;1.40;;;;;;;23.73;51.96;100314.03;4515260;28;20635;-58
2023/07/20 04:01:58;;;;;;;2.25;1.52;;;;;;;23.74;51.49;100311.97;4516560;28;20036;-58
2023/07/20 04:04:08;;;;;;;2.45;1.45;;;;;;;23.72;51.95;100314.44;4517983;28;20036;-58
2023/07/20 04:06:19;;;;;;;1.95;1.33;;;;;;;23.72;52.08;100305.78;4532091;28;20696;-58
2023/07/20 04:08:29;;;;;;;1.63;1.40;;;;;;;23.67;52.08;100306.97;4515639;28;20096;-58
2023/07/20 04:10:43;;;;;;;1.52;1.42;;;;;;;23.68;52.10;100311.50;4504769;28;20030;-58
2023/07/20 04:12:54;;;;;;;2.45;1.60;;;;;;;23.69;52.09;100315.22;4515723;28;20034;-58
2023/07/20 04:15:06;;;;;;;1.90;1.50;;;;;;;23.71;52.23;100319.34;4515566;28;20489;-58
2023/07/20 04:17:17;;;;;;;2.20;1.80;;;;;;;23.71;51.53;100325.13;4514356;28;20052;-58
2023/07/20 04:19:28;;;;;;;2.85;1.58;;;;;;;23.72;52.29;100315.25;4504362;28;21251;-58
2023/07/20 04:21:41;;;;;;;1.50;1.20;;;;;;;23.72;52.54;100321.03;4515735;28;20060;-58
2023/07/20 04:23:52;;;;;;;1.48;1.30;;;;;;;23.70;52.53;100326.34;4514235;28;20098;-58
2023/07/20 04:26:03;;;;;;;1.60;1.50;;;;;;;23.69;52.11;100326.75;4514341;28;20580;-58
2023/07/20 04:28:13;;;;;;;1.55;1.45;;;;;;;23.69;52.73;100329.63;4515917;28;20221;-58
2023/07/20 04:30:29;;;;;;;1.50;1.37;;;;;;;23.71;52.47;100330.03;4514440;28;20131;-58
2023/07/20 04:32:44;;;;;;;1.45;1.35;;;;;;;23.69;52.57;100321.78;4514885;28;20037;-58
2023/07/20 04:34:55;;;;;;;1.40;1.30;;;;;;;23.71;52.38;100333.75;4504605;28;21012;-58
2023/07/20 04:37:05;;;;;;;1.75;1.30;;;;;;;23.66;52.29;100333.31;4513982;28;20195;-58
2023/07/20 04:39:16;;;;;;;2.13;1.80;;;;;;;23.70;52.58;100340.75;4515423;28;20041;-58
2023/07/20 04:41:28;;;;;;;1.88;1.50;;;;;;;23.53;52.64;100318.34;4515752;28;20161;-58
2023/07/20 04:43:42;;;;;;;1.50;1.30;;;;;;;23.69;52.62;100350.59;4503268;28;20749;-59
2023/07/20 04:45:53;;;;;;;2.45;1.20;;;;;;;23.67;51.87;100346.47;4512737;28;20355;-58
2023/07/20 04:48:08;;;;;;;1.60;0.82;;;;;;;23.64;52.08;100348.09;4513983;28;20037;-58
2023/07/20 04:50:19;;;;;;;1.05;0.95;;;;;;;23.63;51.77;100344.38;4513220;28;20052;-58
2023/07/20 04:52:30;;;;;;;2.33;0.90;;;;;;;23.58;50.98;100343.88;4515059;28;20235;-58
2023/07/20 04:54:41;;;;;;;0.63;0.63;;;;;;;23.64;51.58;100365.41;4514590;28;20038;-58
2023/07/20 04:56:54;;;;;;;0.90;0.80;;;;;;;23.64;51.07;100368.28;4516953;28;20076;-58
2023/07/20 04:59:05;;;;;;;0.80;0.80;;;;;;;23.58;51.20;100353.38;4521537;28;20037;-58
2023/07/20 05:01:16;;;;;;;1.45;0.73;;;;;;;23.65;50.94;100367.03;4515593;28;20022;-58
2023/07/20 05:03:26;;;;;;;2.55;0.73;;;;;;;23.63;51.01;100367.44;4515825;28;20910;-59
2023/07/20 05:05:37;;;;;;;1.00;0.90;;;;;;;23.59;51.58;100357.91;4504606;28;20038;-57
2023/07/20 05:07:48;;;;;;;0.90;0.90;;;;;;;23.66;51.16;100367.88;4512599;28;20046;-57
2023/07/20 05:09:58;;;;;;;1.23;0.68;;;;;;;23.65;51.34;100369.91;4515488;28;20798;-57
2023/07/20 05:12:09;;;;;;;1.08;0.98;;;;;;;23.64;51.30;100359.63;4515771;28;20117;-58
2023/07/20 05:14:20;;;;;;;1.02;0.90;;;;;;;23.62;51.06;100367.81;4516139;28;20037;-57
2023/07/20 05:16:32;;;;;;;1.15;0.90;;;;;;;23.64;51.23;100371.16;4504807;28;20556;-58
2023/07/20 05:18:46;;;;;;;1.00;0.90;;;;;;;23.61;50.74;100374.78;4515177;28;20496;-57
2023/07/20 05:20:57;;;;;;;1.17;0.85;;;;;;;23.64;51.46;100382.69;4497947;28;20030;-57
2023/07/20 05:23:07;;;;;;;1.23;0.90;;;;;;;23.46;51.40;100345.00;4504090;28;20045;-57
2023/07/20 05:25:18;;;;;;;1.33;0.80;;;;;;;23.61;51.19;100380.56;4516741;28;20108;-56
2023/07/20 05:27:28;;;;;;;1.15;0.90;;;;;;;23.62;51.49;100376.47;4516048;28;20045;-57
2023/07/20 05:29:46;;;;;;;1.35;1.00;;;;;;;23.58;51.30;100372.69;4514813;28;20588;-57
2023/07/20 05:31:57;;;;;;;1.52;0.90;;;;;;;23.61;51.53;100380.56;4514355;28;20085;-57
2023/07/20 05:34:08;;;;;;;1.10;1.00;;;;;;;23.60;51.00;100382.63;4516190;28;20041;-56
2023/07/20 05:36:18;;;;;;;0.95;0.90;;;;;;;23.57;51.18;100368.19;4516163;28;20048;-58
2023/07/20 05:38:29;;;;;;;1.73;1.20;;;;;;;23.57;51.28;100371.06;4517510;28;20366;-57
2023/07/20 05:40:42;;;;;;;0.90;0.90;;;;;;;23.54;51.11;100361.16;4515859;28;20036;-57
2023/07/20 05:42:53;;;;;;;0.75;0.70;;;;;;;23.57;50.46;100379.69;4513694;28;20128;-57
2023/07/20 05:45:05;;;;;;;0.77;0.77;;;;;;;23.55;50.08;100379.25;4514765;28;20878;-57
2023/07/20 05:47:15;;;;;;;0.70;0.70;;;;;;;23.58;50.38;100381.34;4515312;28;20033;-57
2023/07/20 05:49:26;;;;;;;0.70;0.70;;;;;;;23.57;50.49;100382.59;4513603;28;20037;-58
2023/07/20 05:51:36;;;;;;;0.68;0.60;;;;;;;23.56;50.18;100386.69;4497139;28;20559;-58
2023/07/20 05:53:46;;;;;;;0.80;0.80;;;;;;;23.55;50.12;100391.63;4516329;28;20145;-56
2023/07/20 05:55:57;;;;;;;1.20;0.50;;;;;;;23.56;50.76;100386.69;4514819;28;20470;-58
2023/07/20 05:58:07;;;;;;;1.20;0.75;;;;;;;23.54;50.47;100392.00;4516064;28;20090;-57
2023/07/20 06:00:19;;;;;;;0.77;0.68;;;;;;;23.54;50.46;100397.78;4517690;28;20030;-58
2023/07/20 06:02:29;;;;;;;0.70;0.63;;;;;;;23.53;50.78;100388.28;4516554;28;20128;-58
2023/07/20 06:04:40;;;;;;;0.57;0.57;;;;;;;23.55;50.50;100396.53;4515912;28;20040;-58
2023/07/20 06:06:50;;;;;;;0.75;0.75;;;;;;;23.55;50.40;100402.31;4516128;28;20092;-58
2023/07/20 06:09:05;;;;;;;0.68;0.60;;;;;;;23.55;50.98;100403.16;4515864;28;20064;-59
2023/07/20 06:11:16;;;;;;;0.70;0.70;;;;;;;23.56;50.78;100403.97;4513830;28;20262;-58
2023/07/20 06:13:26;;;;;;;0.80;0.80;;;;;;;23.56;50.99;100409.75;4521206;28;20033;-58
2023/07/20 06:15:38;;;;;;;0.60;0.60;;;;;;;23.53;50.77;100410.53;4514948;28;20040;-58
2023/07/20 06:17:49;;;;;;;0.63;0.60;;;;;;;23.52;50.58;100421.22;4519442;28;20038;-58
2023/07/20 06:19:59;;;;;;;1.02;0.70;;;;;;;23.54;50.69;100423.72;4517751;28;20041;-58
2023/07/20 06:22:10;;;;;;;0.50;0.50;;;;;;;23.51;50.42;100418.72;4515246;28;20028;-59
2023/07/20 06:24:20;;;;;;;1.38;0.52;;;;;;;23.53;50.66;100433.59;4519140;28;20136;-58
2023/07/20 06:26:31;;;;;;;0.50;0.50;;;;;;;23.51;50.26;100436.00;4519020;28;20064;-59
2023/07/20 06:28:41;;;;;;;0.50;0.50;;;;;;;23.51;49.85;100436.00;4515435;28;20072;-59
2023/07/20 06:30:51;;;;;;;0.80;0.50;;;;;;;23.47;49.54;100435.97;4521537;28;20065;-58
2023/07/20 06:33:02;;;;;;;0.40;0.40;;;;;;;23.43;49.95;100420.69;4507558;28;20696;-59
2023/07/20 06:35:13;;;;;;;0.63;0.50;;;;;;;23.47;49.75;100424.44;4517330;28;20056;-57
2023/07/20 06:37:24;;;;;;;0.40;0.40;;;;;;;23.50;50.18;100428.56;4518712;28;20490;-57
2023/07/20 06:39:34;;;;;;;0.50;0.47;;;;;;;23.50;50.55;100434.34;4518800;28;20025;-59
2023/07/20 06:41:44;;;;;;;0.40;0.40;;;;;;;23.47;49.66;100432.25;4518538;28;20045;-58
2023/07/20 06:43:58;;;;;;;0.30;0.30;;;;;;;23.46;49.05;100436.34;4516712;28;20033;-58
2023/07/20 06:46:09;;;;;;;1.15;0.50;;;;;;;23.47;49.19;100435.97;4517924;28;20642;-58
2023/07/20 06:48:20;;;;;;;0.45;0.40;;;;;;;23.46;49.37;100440.06;4517532;28;20037;-58
2023/07/20 06:50:30;;;;;;;0.68;0.40;;;;;;;23.44;49.23;100442.50;4517863;28;20082;-59
2023/07/20 06:52:41;;;;;;;0.40;0.40;;;;;;;23.46;49.31;100430.59;4517758;28;20087;-58
2023/07/20 06:54:51;;;;;;;0.50;0.43;;;;;;;23.47;49.88;100435.13;4517218;28;20049;-59
2023/07/20 06:57:02;;;;;;;1.50;0.40;;;;;;;23.41;50.24;100428.06;4518952;28;20044;-58
2023/07/20 06:59:13;;;;;;;0.32;0.32;;;;;;;23.44;49.55;100430.16;4516603;28;20037;-59
2023/07/20 07:01:23;;;;;;;0.40;0.40;;;;;;;23.42;49.30;100444.13;4517984;28;20561;-58
2023/07/20 07:03:33;;;;;;;0.30;0.30;;;;;;;23.42;49.68;100444.13;4516170;28;20041;-58
2023/07/20 07:05:47;;;;;;;0.40;0.30;;;;;;;23.40;50.02;100440.81;4515978;28;20095;-58
2023/07/20 07:07:57;;;;;;;0.20;0.20;;;;;;;23.44;49.75;100458.94;4516067;28;21265;-57
2023/07/20 07:10:08;;;;;;;0.55;0.30;;;;;;;23.41;49.07;100454.81;4516602;28;20112;-58
2023/07/20 07:12:18;;;;;;;0.30;0.30;;;;;;;23.36;48.42;100451.41;4517833;28;20033;-58
2023/07/20 07:14:29;;;;;;;0.22;0.22;;;;;;;23.39;48.56;100453.53;4518109;28;20049;-57
2023/07/20 07:16:39;;;;;;;0.40;0.40;;;;;;;23.37;48.13;100458.88;4516249;28;20841;-58
2023/07/20 07:18:50;;;;;;;0.30;0.30;;;;;;;23.41;48.14;100460.56;4516664;28;20037;-58
2023/07/20 07:21:01;;;;;;;0.20;0.20;;;;;;;23.41;48.15;100459.72;4517989;28;20071;-58
2023/07/20 07:23:11;;;;;;;0.30;0.30;;;;;;;23.36;48.14;100457.19;4517879;28;20462;-58
2023/07/20 07:25:22;;;;;;;0.30;0.30;;;;;;;23.38;48.13;100460.50;4517045;28;20069;-58
2023/07/20 07:27:32;;;;;;;0.30;0.30;;;;;;;23.39;47.76;100468.75;4514405;28;20061;-59
2023/07/20 07:29:46;;;;;;;0.30;0.30;;;;;;;23.36;47.32;100460.06;4515550;28;20416;-58
2023/07/20 07:31:56;;;;;;;0.28;0.20;;;;;;;23.35;48.12;100456.38;4516796;28;20037;-57
2023/07/20 07:34:07;;;;;;;0.32;0.30;;;;;;;23.36;47.52;100460.06;4517298;28;20099;-57
2023/07/20 07:36:18;;;;;;;0.30;0.30;;;;;;;23.27;47.38;100445.97;4532271;28;20503;-57
2023/07/20 07:38:28;;;;;;;0.70;0.30;;;;;;;23.45;46.96;100472.16;4516328;28;20056;-57
2023/07/20 07:40:39;;;;;;;0.10;0.10;;;;;;;23.46;46.31;100471.75;4517393;28;20038;-58
2023/07/20 07:42:49;;;;;;;0.30;0.30;;;;;;;23.47;45.95;100476.28;4515993;28;20046;-58
2023/07/20 07:44:59;;;;;;;0.30;0.20;;;;;;;23.45;46.87;100478.72;4515077;28;20615;-58
2023/07/20 07:47:10;;;;;;;0.20;0.20;;;;;;;23.42;47.18;100467.97;4512297;28;20069;-58
2023/07/20 07:49:20;;;;;;;0.32;0.30;;;;;;;23.48;47.18;100485.78;4516314;28;20041;-58
2023/07/20 07:51:31;;;;;;;0.20;0.20;;;;;;;23.43;46.91;100484.06;4516525;28;20045;-58
2023/07/20 07:53:42;;;;;;;0.40;0.40;;;;;;;23.46;46.29;100489.03;4516533;28;20025;-58
2023/07/20 07:55:52;;;;;;;0.20;0.20;;;;;;;23.47;45.24;100492.72;4515704;28;20699;-58
2023/07/20 07:58:03;;;;;;;0.30;0.30;;;;;;;23.48;45.89;100495.22;4515930;28;20057;-58
2023/07/20 08:00:14;;;;;;;0.20;0.20;;;;;;;23.47;45.87;100486.97;4516741;28;20033;-58
2023/07/20 08:02:25;;;;;;;0.98;0.30;;;;;;;23.50;45.82;100500.59;4516039;28;20033;-58
2023/07/20 08:04:35;;;;;;;0.30;0.30;;;;;;;23.50;46.07;100492.78;4516309;28;20463;-57
2023/07/20 08:06:46;;;;;;;0.30;0.30;;;;;;;23.46;45.67;100488.22;4517363;28;21078;-58
2023/07/20 08:08:56;;;;;;;0.10;0.10;;;;;;;23.47;45.74;100487.81;4516697;28;20037;-58
2023/07/20 08:11:06;;;;;;;0.25;0.25;;;;;;;23.48;46.39;100491.53;4516369;28;20119;-58
2023/07/20 08:13:17;;;;;;;0.20;0.20;;;;;;;23.49;45.86;100496.91;4515679;28;20042;-58
2023/07/20 08:15:27;;;;;;;0.32;0.20;;;;;;;23.47;45.80;100492.72;4505319;28;20425;-58
2023/07/20 08:17:38;;;;;;;0.20;0.20;;;;;;;23.48;45.28;100492.34;4516372;28;20124;-58
2023/07/20 08:19:48;;;;;;;0.20;0.20;;;;;;;23.49;44.97;100496.06;4515313;28;20763;-58
2023/07/20 08:21:59;;;;;;;0.35;0.20;;;;;;;23.51;44.80;100490.75;4517228;28;20069;-58
2023/07/20 08:24:09;;;;;;;0.47;0.22;;;;;;;23.50;44.17;100489.06;4515948;28;20434;-59
2023/07/20 08:26:22;;;;;;;0.22;0.20;;;;;;;23.51;43.94;100499.41;4515686;28;20053;-57
2023/07/20 08:28:34;;;;;;;0.17;0.15;;;;;;;23.51;42.67;100500.25;4516330;28;20038;-57
2023/07/20 08:30:48;;;;;;;0.20;0.20;;;;;;;23.48;42.84;100492.34;4515528;28;20045;-57
2023/07/20 08:32:59;;;;;;;0.45;0.22;;;;;;;23.49;42.29;100502.66;4515603;28;20572;-58
2023/07/20 08:35:10;;;;;;;0.22;0.20;;;;;;;23.44;42.41;100497.25;4516545;28;20052;-57
2023/07/20 08:37:20;;;;;;;0.20;0.20;;;;;;;23.52;42.48;100506.81;4516867;28;20032;-57
2023/07/20 08:39:30;;;;;;;0.10;0.10;;;;;;;23.45;40.80;100498.88;4515857;28;20497;-57
2023/07/20 08:41:43;;;;;;;0.10;0.10;;;;;;;23.48;40.65;100508.81;4517647;28;20278;-57
2023/07/20 08:43:56;;;;;;;0.20;0.20;;;;;;;23.48;41.94;100508.81;4515943;28;20112;-57
2023/07/20 08:46:08;;;;;;;0.20;0.20;;;;;;;23.52;42.17;100519.16;4516397;28;20021;-57
2023/07/20 08:48:20;;;;;;;0.20;0.20;;;;;;;23.53;43.04;100517.13;4516152;28;20608;-57
2023/07/20 08:50:30;;;;;;;0.20;0.20;;;;;;;23.49;41.93;100519.13;4514911;28;20044;-57
2023/07/20 08:52:41;;;;;;;0.38;0.17;;;;;;;23.48;43.30;100523.22;4516084;28;20083;-57
2023/07/20 08:54:53;;;;;;;0.45;0.30;;;;;;;23.44;43.31;100516.56;4515184;28;20406;-58
2023/07/20 08:57:05;;;;;;;0.20;0.20;;;;;;;23.41;42.09;100512.41;4520157;28;20683;-59
2023/07/20 08:59:18;;;;;;;0.10;0.10;;;;;;;23.48;43.31;100520.34;4515647;28;21419;-58
2023/07/20 09:01:29;;;;;;;0.20;0.20;;;;;;;23.48;43.56;100520.34;4515422;28;20554;-58
2023/07/20 09:03:40;;;;;;;0.20;0.20;;;;;;;23.49;43.19;100516.22;4514419;28;20041;-58
2023/07/20 09:05:51;;;;;;;0.20;0.20;;;;;;;23.49;43.31;100516.22;4515610;28;20187;-58
2023/07/20 09:08:03;;;;;;;0.20;0.20;;;;;;;23.52;43.16;100519.16;4515058;28;20099;-58
2023/07/20 09:10:14;;;;;;;0.20;0.20;;;;;;;23.51;43.17;100516.69;4515137;28;20204;-58
2023/07/20 09:12:25;;;;;;;0.20;0.20;;;;;;;23.49;42.37;100519.13;4515707;28;20180;-58
2023/07/20 09:14:37;;;;;;;0.30;0.25;;;;;;;23.54;42.57;100528.25;4515368;28;20685;-58
2023/07/20 09:16:54;;;;;;;0.10;0.10;;;;;;;23.54;42.95;100515.91;4516000;28;20041;-58
2023/07/20 09:19:04;;;;;;;0.30;0.30;;;;;;;23.53;42.93;100520.00;4515333;28;20703;-58
2023/07/20 09:21:17;;;;;;;0.30;0.20;;;;;;;23.55;42.26;100517.56;4516064;28;20025;-58
2023/07/20 09:23:41;;;;;;;0.20;0.20;;;;;;;23.52;41.87;100513.41;4517066;28;20042;-59
2023/07/20 09:25:51;;;;;;;0.10;0.10;;;;;;;23.52;41.73;100512.56;4517067;28;20103;-59
2023/07/20 09:28:04;;;;;;;0.28;0.28;;;;;;;23.57;42.40;100520.88;4514869;28;20084;-59
2023/07/20 09:30:17;;;;;;;0.13;0.13;;;;;;;23.55;41.89;100520.44;4512715;28;20565;-59
2023/07/20 09:32:27;;;;;;;0.43;0.20;;;;;;;23.56;42.04;100519.22;4515089;28;20042;-59
2023/07/20 09:34:38;;;;;;;0.30;0.30;;;;;;;23.57;42.08;100530.38;4514613;28;20033;-59
2023/07/20 09:36:48;;;;;;;0.32;0.20;;;;;;;23.57;42.03;100521.72;4515165;28;20520;-59
2023/07/20 09:38:59;;;;;;;0.20;0.20;;;;;;;23.56;41.89;100513.47;4514612;28;20092;-58
2023/07/20 09:41:15;;;;;;;0.20;0.20;;;;;;;23.58;41.61;100522.53;4515321;28;20145;-59
2023/07/20 09:43:30;;;;;;;0.75;0.30;;;;;;;23.57;41.15;100512.22;4505846;28;20579;-59
2023/07/20 09:45:42;;;;;;;0.20;0.20;;;;;;;23.59;40.98;100513.50;4515164;28;20046;-60
2023/07/20 09:48:05;;;;;;;0.15;0.13;;;;;;;23.57;40.00;100504.44;4515360;28;20378;-61
2023/07/20 09:50:15;;;;;;;0.10;0.10;;;;;;;23.55;40.87;100501.09;4515952;28;20036;-61
2023/07/20 09:52:27;;;;;;;0.30;0.30;;;;;;;23.62;41.58;100511.91;4517746;28;20040;-59
2023/07/20 09:54:39;;;;;;;0.30;0.20;;;;;;;23.61;41.12;100516.81;4519211;28;20200;-59
2023/07/20 09:56:52;;;;;;;0.10;0.10;;;;;;;23.60;40.27;100511.44;4517891;28;20600;-59
2023/07/20 09:59:04;;;;;;;0.20;0.20;;;;;;;23.60;40.36;100518.06;4518058;28;20517;-59
2023/07/20 10:01:20;;;;;;;0.35;0.20;;;;;;;23.61;40.81;100522.59;4517856;28;20135;-59
2023/07/20 10:03:32;;;;;;;0.20;0.20;;;;;;;23.61;40.49;100515.97;4517874;28;20600;-59
2023/07/20 10:05:56;;;;;;;0.20;0.20;;;;;;;23.62;40.28;100517.66;4517413;28;20041;-59
2023/07/20 10:08:11;;;;;;;0.20;0.20;;;;;;;23.63;40.61;100520.16;4518074;28;20073;-59
2023/07/20 10:10:22;;;;;;;0.20;0.20;;;;;;;23.61;40.70;100510.22;4519092;28;20049;-59
2023/07/20 10:12:33;;;;;;;0.20;0.20;;;;;;;23.60;41.04;100520.94;4515638;28;20068;-58